sensor_id;sensor_type;location;lat;lon;timestamp;pressure;altitude;pressure_sealevel;temperature;humidity
28456;BME280;15682;56.742;38.866;2022-08-24T00:01:53;100840.0;;;18.2;77.7
28456;BME280;15682;56.742;38.866;2022-08-24T00:03:55;100840.0;;;18.2;77.7
28456;BME280;15682;56.742;38.866;2022-08-24T00:05:54;100840.0;;;18.2;77.7
28456;BME280;15682;56.742;38.866;2022-08-24T00:07:54;100840.0;;;18.2;77.2
28456;BME280;15682;56.742;38.866;2022-08-24T00:09:55;100840.0;;;18.1;77.2
28456;BME280;15682;56.742;38.866;2022-08-24T00:11:55;100840.0;;;18.1;77.0
28456;BME280;15682;56.742;38.866;2022-08-24T00:13:55;100840.0;;;18.1;77.0
28456;BME280;15682;56.742;38.866;2022-08-24T00:15:56;100840.0;;;18.1;77.0
28456;BME280;15682;56.742;38.866;2022-08-24T00:17:56;100840.0;;;18.2;76.4
28456;BME280;15682;56.742;38.866;2022-08-24T00:19:56;100840.0;;;18.2;76.4
28456;BME280;15682;56.742;38.866;2022-08-24T00:21:57;100840.0;;;18.2;76.4
28456;BME280;15682;56.742;38.866;2022-08-24T00:23:57;100840.0;;;18.2;76.4
28456;BME280;15682;56.742;38.866;2022-08-24T00:25:57;100840.0;;;18.2;76.4
28456;BME280;15682;56.742;38.866;2022-08-24T00:27:58;100840.0;;;18.0;76.7
28456;BME280;15682;56.742;38.866;2022-08-24T00:29:58;100840.0;;;18.0;75.7
28456;BME280;15682;56.742;38.866;2022-08-24T00:31:59;100850.0;;;18.0;76.5
28456;BME280;15682;56.742;38.866;2022-08-24T00:33:59;100850.0;;;17.8;77.1
28456;BME280;15682;56.742;38.866;2022-08-24T00:35:59;100850.0;;;17.8;76.9
28456;BME280;15682;56.742;38.866;2022-08-24T00:37:59;100850.0;;;17.9;76.9
28456;BME280;15682;56.742;38.866;2022-08-24T00:40:00;100850.0;;;17.7;77.7
28456;BME280;15682;56.742;38.866;2022-08-24T00:42:00;100850.0;;;17.7;77.2
28456;BME280;15682;56.742;38.866;2022-08-24T00:44:03;100850.0;;;17.7;77.2
28456;BME280;15682;56.742;38.866;2022-08-24T00:46:10;100850.0;;;17.7;77.1
28456;BME280;15682;56.742;38.866;2022-08-24T00:48:04;100850.0;;;17.7;77.1
28456;BME280;15682;56.742;38.866;2022-08-24T00:50:06;100860.0;;;17.6;77.1
28456;BME280;15682;56.742;38.866;2022-08-24T00:52:05;100860.0;;;17.6;77.1
28456;BME280;15682;56.742;38.866;2022-08-24T00:54:05;100860.0;;;17.6;77.1
28456;BME280;15682;56.742;38.866;2022-08-24T00:56:08;100860.0;;;17.7;76.9
28456;BME280;15682;56.742;38.866;2022-08-24T00:58:08;100860.0;;;17.7;76.9
28456;BME280;15682;56.742;38.866;2022-08-24T01:00:13;100860.0;;;17.6;76.9
28456;BME280;15682;56.742;38.866;2022-08-24T01:02:07;100860.0;;;17.6;76.9
28456;BME280;15682;56.742;38.866;2022-08-24T01:04:06;100870.0;;;17.6;76.6
28456;BME280;15682;56.742;38.866;2022-08-24T01:06:05;100870.0;;;17.7;76.6
28456;BME280;15682;56.742;38.866;2022-08-24T01:08:06;100870.0;;;17.6;76.6
28456;BME280;15682;56.742;38.866;2022-08-24T01:10:08;100870.0;;;17.6;77.1
28456;BME280;15682;56.742;38.866;2022-08-24T01:12:06;100870.0;;;17.6;77.1
28456;BME280;15682;56.742;38.866;2022-08-24T01:14:06;100880.0;;;17.6;77.1
28456;BME280;15682;56.742;38.866;2022-08-24T01:16:07;100880.0;;;17.6;77.1
28456;BME280;15682;56.742;38.866;2022-08-24T01:18:10;100880.0;;;17.4;77.1
28456;BME280;15682;56.742;38.866;2022-08-24T01:20:08;100880.0;;;17.4;77.1
28456;BME280;15682;56.742;38.866;2022-08-24T01:22:18;100880.0;;;17.5;77.1
28456;BME280;15682;56.742;38.866;2022-08-24T01:24:10;100880.0;;;17.4;77.1
28456;BME280;15682;56.742;38.866;2022-08-24T01:26:11;100880.0;;;17.4;77.9
28456;BME280;15682;56.742;38.866;2022-08-24T01:28:12;100880.0;;;17.3;77.9
28456;BME280;15682;56.742;38.866;2022-08-24T01:30:11;100880.0;;;17.3;77.9
28456;BME280;15682;56.742;38.866;2022-08-24T01:32:09;100880.0;;;17.3;77.0
28456;BME280;15682;56.742;38.866;2022-08-24T01:34:09;100880.0;;;17.3;77.9
28456;BME280;15682;56.742;38.866;2022-08-24T01:36:23;100880.0;;;17.3;77.6
28456;BME280;15682;56.742;38.866;2022-08-24T01:38:10;100870.0;;;17.4;77.6
28456;BME280;15682;56.742;38.866;2022-08-24T01:40:10;100870.0;;;17.4;77.6
28456;BME280;15682;56.742;38.866;2022-08-24T01:42:11;100870.0;;;17.4;78.4
28456;BME280;15682;56.742;38.866;2022-08-24T01:44:11;100870.0;;;17.4;78.9
28456;BME280;15682;56.742;38.866;2022-08-24T01:46:11;100880.0;;;17.4;79.0
28456;BME280;15682;56.742;38.866;2022-08-24T01:48:11;100880.0;;;17.1;79.0
28456;BME280;15682;56.742;38.866;2022-08-24T01:50:12;100880.0;;;17.1;79.0
28456;BME280;15682;56.742;38.866;2022-08-24T01:52:15;100880.0;;;17.1;79.0
28456;BME280;15682;56.742;38.866;2022-08-24T01:54:13;100880.0;;;17.3;79.0
28456;BME280;15682;56.742;38.866;2022-08-24T01:56:12;100880.0;;;17.3;79.0
28456;BME280;15682;56.742;38.866;2022-08-24T01:58:13;100870.0;;;17.4;77.5
28456;BME280;15682;56.742;38.866;2022-08-24T02:00:14;100870.0;;;17.6;75.7
28456;BME280;15682;56.742;38.866;2022-08-24T02:02:16;100870.0;;;17.6;77.7
28456;BME280;15682;56.742;38.866;2022-08-24T02:04:14;100870.0;;;17.6;75.3
28456;BME280;15682;56.742;38.866;2022-08-24T02:06:14;100870.0;;;17.4;74.7
28456;BME280;15682;56.742;38.866;2022-08-24T02:08:14;100870.0;;;17.3;74.7
28456;BME280;15682;56.742;38.866;2022-08-24T02:10:15;100870.0;;;17.3;75.5
28456;BME280;15682;56.742;38.866;2022-08-24T02:12:16;100870.0;;;17.3;76.7
28456;BME280;15682;56.742;38.866;2022-08-24T02:14:15;100870.0;;;17.3;76.7
28456;BME280;15682;56.742;38.866;2022-08-24T02:16:16;100870.0;;;17.3;77.5
28456;BME280;15682;56.742;38.866;2022-08-24T02:18:16;100870.0;;;17.3;77.5
28456;BME280;15682;56.742;38.866;2022-08-24T02:20:16;100870.0;;;17.3;78.3
28456;BME280;15682;56.742;38.866;2022-08-24T02:22:17;100870.0;;;17.3;78.9
28456;BME280;15682;56.742;38.866;2022-08-24T02:24:17;100870.0;;;17.3;78.9
28456;BME280;15682;56.742;38.866;2022-08-24T02:26:18;100870.0;;;17.2;79.3
28456;BME280;15682;56.742;38.866;2022-08-24T02:28:18;100870.0;;;17.2;79.5
28456;BME280;15682;56.742;38.866;2022-08-24T02:30:18;100870.0;;;17.1;79.5
28456;BME280;15682;56.742;38.866;2022-08-24T02:32:19;100870.0;;;17.1;80.1
28456;BME280;15682;56.742;38.866;2022-08-24T02:34:19;100880.0;;;17.3;79.4
28456;BME280;15682;56.742;38.866;2022-08-24T02:36:19;100880.0;;;17.2;79.3
28456;BME280;15682;56.742;38.866;2022-08-24T02:38:20;100880.0;;;17.3;77.2
28456;BME280;15682;56.742;38.866;2022-08-24T02:40:20;100880.0;;;17.3;76.4
28456;BME280;15682;56.742;38.866;2022-08-24T02:42:20;100880.0;;;17.3;76.4
28456;BME280;15682;56.742;38.866;2022-08-24T02:44:21;100880.0;;;17.3;76.4
28456;BME280;15682;56.742;38.866;2022-08-24T02:46:23;100880.0;;;17.3;76.4
28456;BME280;15682;56.742;38.866;2022-08-24T02:48:21;100890.0;;;17.2;76.4
28456;BME280;15682;56.742;38.866;2022-08-24T02:50:22;100890.0;;;17.2;76.9
28456;BME280;15682;56.742;38.866;2022-08-24T02:52:22;100890.0;;;17.2;76.7
28456;BME280;15682;56.742;38.866;2022-08-24T02:54:22;100890.0;;;17.2;78.3
28456;BME280;15682;56.742;38.866;2022-08-24T02:56:23;100890.0;;;17.2;77.4
28456;BME280;15682;56.742;38.866;2022-08-24T02:58:23;100890.0;;;17.4;77.5
28456;BME280;15682;56.742;38.866;2022-08-24T03:00:23;100890.0;;;17.4;78.2
28456;BME280;15682;56.742;38.866;2022-08-24T03:02:24;100890.0;;;17.4;78.7
28456;BME280;15682;56.742;38.866;2022-08-24T03:04:24;100890.0;;;17.1;78.7
28456;BME280;15682;56.742;38.866;2022-08-24T03:06:24;100890.0;;;17.1;79.2
28456;BME280;15682;56.742;38.866;2022-08-24T03:08:25;100900.0;;;17.1;79.2
28456;BME280;15682;56.742;38.866;2022-08-24T03:10:25;100900.0;;;17.1;79.2
28456;BME280;15682;56.742;38.866;2022-08-24T03:12:25;100900.0;;;17.2;78.7
28456;BME280;15682;56.742;38.866;2022-08-24T03:14:26;100900.0;;;17.2;78.7
28456;BME280;15682;56.742;38.866;2022-08-24T03:16:27;100900.0;;;17.2;78.9
28456;BME280;15682;56.742;38.866;2022-08-24T03:18:27;100900.0;;;17.2;78.2
28456;BME280;15682;56.742;38.866;2022-08-24T03:20:27;100900.0;;;17.2;78.2
28456;BME280;15682;56.742;38.866;2022-08-24T03:22:27;100900.0;;;17.2;78.2
28456;BME280;15682;56.742;38.866;2022-08-24T03:24:27;100900.0;;;17.2;77.3
28456;BME280;15682;56.742;38.866;2022-08-24T03:26:28;100900.0;;;17.3;75.7
28456;BME280;15682;56.742;38.866;2022-08-24T03:28:28;100900.0;;;17.2;76.0
28456;BME280;15682;56.742;38.866;2022-08-24T03:30:28;100900.0;;;17.2;76.4
28456;BME280;15682;56.742;38.866;2022-08-24T03:32:29;100910.0;;;17.2;76.4
28456;BME280;15682;56.742;38.866;2022-08-24T03:34:29;100920.0;;;17.3;76.4
28456;BME280;15682;56.742;38.866;2022-08-24T03:36:30;100920.0;;;17.4;74.8
28456;BME280;15682;56.742;38.866;2022-08-24T03:38:30;100920.0;;;17.3;74.6
28456;BME280;15682;56.742;38.866;2022-08-24T03:40:30;100920.0;;;17.3;74.1
28456;BME280;15682;56.742;38.866;2022-08-24T03:42:31;100920.0;;;17.3;75.2
28456;BME280;15682;56.742;38.866;2022-08-24T03:44:31;100920.0;;;17.3;74.4
28456;BME280;15682;56.742;38.866;2022-08-24T03:46:34;100920.0;;;17.3;74.4
28456;BME280;15682;56.742;38.866;2022-08-24T03:48:32;100920.0;;;17.5;75.3
28456;BME280;15682;56.742;38.866;2022-08-24T03:50:32;100930.0;;;17.5;74.1
28456;BME280;15682;56.742;38.866;2022-08-24T03:52:33;100930.0;;;17.5;74.6
28456;BME280;15682;56.742;38.866;2022-08-24T03:54:33;100930.0;;;17.7;74.6
28456;BME280;15682;56.742;38.866;2022-08-24T03:56:33;100930.0;;;17.5;74.6
28456;BME280;15682;56.742;38.866;2022-08-24T03:58:34;100930.0;;;17.7;74.6
28456;BME280;15682;56.742;38.866;2022-08-24T04:00:34;100930.0;;;17.8;74.0
28456;BME280;15682;56.742;38.866;2022-08-24T04:02:34;100930.0;;;17.8;74.0
28456;BME280;15682;56.742;38.866;2022-08-24T04:04:35;100930.0;;;18.0;73.2
28456;BME280;15682;56.742;38.866;2022-08-24T04:06:35;100930.0;;;18.2;72.6
28456;BME280;15682;56.742;38.866;2022-08-24T04:08:36;100930.0;;;18.2;72.6
28456;BME280;15682;56.742;38.866;2022-08-24T04:10:36;100930.0;;;18.3;72.8
28456;BME280;15682;56.742;38.866;2022-08-24T04:12:36;100930.0;;;18.2;72.8
28456;BME280;15682;56.742;38.866;2022-08-24T04:14:37;100930.0;;;18.2;72.8
28456;BME280;15682;56.742;38.866;2022-08-24T04:16:37;100930.0;;;18.2;72.8
28456;BME280;15682;56.742;38.866;2022-08-24T04:18:38;100930.0;;;18.3;72.8
28456;BME280;15682;56.742;38.866;2022-08-24T04:20:39;100930.0;;;18.3;72.2
28456;BME280;15682;56.742;38.866;2022-08-24T04:22:38;100930.0;;;18.3;72.2
28456;BME280;15682;56.742;38.866;2022-08-24T04:24:39;100930.0;;;18.3;72.2
28456;BME280;15682;56.742;38.866;2022-08-24T04:26:40;100930.0;;;18.3;72.0
28456;BME280;15682;56.742;38.866;2022-08-24T04:28:40;100930.0;;;18.5;72.7
28456;BME280;15682;56.742;38.866;2022-08-24T04:30:41;100930.0;;;18.5;72.6
28456;BME280;15682;56.742;38.866;2022-08-24T04:32:41;100930.0;;;18.5;71.9
28456;BME280;15682;56.742;38.866;2022-08-24T04:34:42;100940.0;;;18.6;71.9
28456;BME280;15682;56.742;38.866;2022-08-24T04:36:43;100940.0;;;18.6;73.1
28456;BME280;15682;56.742;38.866;2022-08-24T04:38:43;100930.0;;;18.7;72.1
28456;BME280;15682;56.742;38.866;2022-08-24T04:40:45;100930.0;;;18.7;72.1
28456;BME280;15682;56.742;38.866;2022-08-24T04:42:43;100930.0;;;18.7;72.1
28456;BME280;15682;56.742;38.866;2022-08-24T04:44:43;100940.0;;;18.9;72.1
28456;BME280;15682;56.742;38.866;2022-08-24T04:46:44;100940.0;;;18.9;72.1
28456;BME280;15682;56.742;38.866;2022-08-24T04:48:47;100940.0;;;19.0;72.1
28456;BME280;15682;56.742;38.866;2022-08-24T04:50:45;100940.0;;;19.0;72.3
28456;BME280;15682;56.742;38.866;2022-08-24T04:52:45;100940.0;;;19.1;72.8
28456;BME280;15682;56.742;38.866;2022-08-24T04:54:46;100940.0;;;19.1;72.8
28456;BME280;15682;56.742;38.866;2022-08-24T04:56:46;100940.0;;;19.1;72.3
28456;BME280;15682;56.742;38.866;2022-08-24T04:58:47;100940.0;;;19.3;72.3
28456;BME280;15682;56.742;38.866;2022-08-24T05:00:47;100940.0;;;19.3;72.3
28456;BME280;15682;56.742;38.866;2022-08-24T05:02:48;100940.0;;;19.5;72.3
28456;BME280;15682;56.742;38.866;2022-08-24T05:04:48;100940.0;;;19.5;71.5
28456;BME280;15682;56.742;38.866;2022-08-24T05:06:49;100940.0;;;19.8;71.5
28456;BME280;15682;56.742;38.866;2022-08-24T05:08:49;100940.0;;;19.9;70.7
28456;BME280;15682;56.742;38.866;2022-08-24T05:10:50;100940.0;;;19.9;70.6
28456;BME280;15682;56.742;38.866;2022-08-24T05:12:50;100940.0;;;20.0;70.1
28456;BME280;15682;56.742;38.866;2022-08-24T05:14:51;100940.0;;;20.0;70.1
28456;BME280;15682;56.742;38.866;2022-08-24T05:16:51;100940.0;;;20.2;70.1
28456;BME280;15682;56.742;38.866;2022-08-24T05:18:52;100940.0;;;20.4;69.2
28456;BME280;15682;56.742;38.866;2022-08-24T05:20:52;100940.0;;;20.4;69.1
28456;BME280;15682;56.742;38.866;2022-08-24T05:22:53;100940.0;;;20.5;68.6
28456;BME280;15682;56.742;38.866;2022-08-24T05:24:53;100940.0;;;20.7;68.6
28456;BME280;15682;56.742;38.866;2022-08-24T05:26:54;100940.0;;;20.7;68.4
28456;BME280;15682;56.742;38.866;2022-08-24T05:28:55;100940.0;;;20.8;68.4
28456;BME280;15682;56.742;38.866;2022-08-24T05:30:55;100940.0;;;20.8;68.2
28456;BME280;15682;56.742;38.866;2022-08-24T05:32:55;100940.0;;;20.9;68.2
28456;BME280;15682;56.742;38.866;2022-08-24T05:34:59;100940.0;;;21.1;67.2
28456;BME280;15682;56.742;38.866;2022-08-24T05:36:56;100940.0;;;21.3;66.5
28456;BME280;15682;56.742;38.866;2022-08-24T05:38:59;100940.0;;;21.4;67.5
28456;BME280;15682;56.742;38.866;2022-08-24T05:40:58;100940.0;;;21.4;66.7
28456;BME280;15682;56.742;38.866;2022-08-24T05:42:58;100940.0;;;21.4;67.5
28456;BME280;15682;56.742;38.866;2022-08-24T05:44:59;100940.0;;;21.4;66.7
28456;BME280;15682;56.742;38.866;2022-08-24T05:46:59;100940.0;;;21.4;67.6
28456;BME280;15682;56.742;38.866;2022-08-24T05:49:00;100940.0;;;21.7;67.1
28456;BME280;15682;56.742;38.866;2022-08-24T05:51:00;100940.0;;;21.7;66.3
28456;BME280;15682;56.742;38.866;2022-08-24T05:53:01;100940.0;;;21.8;65.7
28456;BME280;15682;56.742;38.866;2022-08-24T05:55:02;100940.0;;;22.0;65.0
28456;BME280;15682;56.742;38.866;2022-08-24T05:57:02;100940.0;;;22.2;65.0
28456;BME280;15682;56.742;38.866;2022-08-24T05:59:03;100940.0;;;22.1;65.0
28456;BME280;15682;56.742;38.866;2022-08-24T06:01:06;100940.0;;;22.0;65.2
28456;BME280;15682;56.742;38.866;2022-08-24T06:03:03;100940.0;;;22.3;64.6
28456;BME280;15682;56.742;38.866;2022-08-24T06:05:04;100940.0;;;22.3;64.6
28456;BME280;15682;56.742;38.866;2022-08-24T06:07:06;100940.0;;;22.3;64.1
28456;BME280;15682;56.742;38.866;2022-08-24T06:09:05;100940.0;;;22.4;64.9
28456;BME280;15682;56.742;38.866;2022-08-24T06:11:06;100940.0;;;22.4;64.4
28456;BME280;15682;56.742;38.866;2022-08-24T06:13:06;100940.0;;;22.8;63.7
28456;BME280;15682;56.742;38.866;2022-08-24T06:15:07;100940.0;;;22.9;62.7
28456;BME280;15682;56.742;38.866;2022-08-24T06:17:08;100940.0;;;22.9;63.2
28456;BME280;15682;56.742;38.866;2022-08-24T06:19:10;100940.0;;;23.1;63.2
28456;BME280;15682;56.742;38.866;2022-08-24T06:21:11;100940.0;;;23.3;62.5
28456;BME280;15682;56.742;38.866;2022-08-24T06:23:09;100940.0;;;23.5;61.8
28456;BME280;15682;56.742;38.866;2022-08-24T06:25:10;100940.0;;;23.6;61.2
28456;BME280;15682;56.742;38.866;2022-08-24T06:27:11;100940.0;;;23.9;60.4
28456;BME280;15682;56.742;38.866;2022-08-24T06:29:11;100940.0;;;24.1;60.4
28456;BME280;15682;56.742;38.866;2022-08-24T06:31:12;100940.0;;;24.1;59.5
28456;BME280;15682;56.742;38.866;2022-08-24T06:33:12;100940.0;;;24.3;58.7
28456;BME280;15682;56.742;38.866;2022-08-24T06:35:13;100940.0;;;24.6;58.7
28456;BME280;15682;56.742;38.866;2022-08-24T06:37:13;100940.0;;;24.7;59.3
28456;BME280;15682;56.742;38.866;2022-08-24T06:39:14;100940.0;;;24.7;57.7
28456;BME280;15682;56.742;38.866;2022-08-24T06:41:14;100940.0;;;24.9;57.5
28456;BME280;15682;56.742;38.866;2022-08-24T06:43:15;100940.0;;;25.0;57.5
28456;BME280;15682;56.742;38.866;2022-08-24T06:45:16;100940.0;;;25.2;57.5
28456;BME280;15682;56.742;38.866;2022-08-24T06:47:17;100940.0;;;25.3;57.0
28456;BME280;15682;56.742;38.866;2022-08-24T06:49:17;100940.0;;;25.4;56.2
28456;BME280;15682;56.742;38.866;2022-08-24T06:51:19;100940.0;;;25.5;55.8
28456;BME280;15682;56.742;38.866;2022-08-24T06:53:19;100940.0;;;25.5;56.4
28456;BME280;15682;56.742;38.866;2022-08-24T06:55:19;100940.0;;;25.8;55.6
28456;BME280;15682;56.742;38.866;2022-08-24T06:57:20;100940.0;;;25.9;55.1
28456;BME280;15682;56.742;38.866;2022-08-24T06:59:21;100940.0;;;25.9;55.1
28456;BME280;15682;56.742;38.866;2022-08-24T07:01:23;100940.0;;;26.1;53.9
28456;BME280;15682;56.742;38.866;2022-08-24T07:03:23;100940.0;;;26.2;53.1
28456;BME280;15682;56.742;38.866;2022-08-24T07:05:23;100940.0;;;26.4;53.7
28456;BME280;15682;56.742;38.866;2022-08-24T07:07:23;100940.0;;;26.4;52.9
28456;BME280;15682;56.742;38.866;2022-08-24T07:09:24;100940.0;;;26.3;52.4
28456;BME280;15682;56.742;38.866;2022-08-24T07:11:25;100940.0;;;26.5;52.4
28456;BME280;15682;56.742;38.866;2022-08-24T07:13:25;100940.0;;;26.7;52.4
28456;BME280;15682;56.742;38.866;2022-08-24T07:15:26;100940.0;;;26.7;52.3
28456;BME280;15682;56.742;38.866;2022-08-24T07:17:27;100940.0;;;26.8;53.0
28456;BME280;15682;56.742;38.866;2022-08-24T07:19:28;100940.0;;;26.9;51.9
28456;BME280;15682;56.742;38.866;2022-08-24T07:21:28;100940.0;;;26.9;52.1
28456;BME280;15682;56.742;38.866;2022-08-24T07:23:29;100940.0;;;27.1;52.1
28456;BME280;15682;56.742;38.866;2022-08-24T07:25:30;100940.0;;;27.3;51.6
28456;BME280;15682;56.742;38.866;2022-08-24T07:27:30;100940.0;;;27.4;50.8
28456;BME280;15682;56.742;38.866;2022-08-24T07:29:31;100940.0;;;27.5;50.0
28456;BME280;15682;56.742;38.866;2022-08-24T07:31:32;100940.0;;;27.5;50.9
28456;BME280;15682;56.742;38.866;2022-08-24T07:33:32;100940.0;;;27.7;49.7
28456;BME280;15682;56.742;38.866;2022-08-24T07:35:34;100940.0;;;27.7;49.7
28456;BME280;15682;56.742;38.866;2022-08-24T07:37:34;100940.0;;;27.8;50.3
28456;BME280;15682;56.742;38.866;2022-08-24T07:39:34;100940.0;;;28.1;50.3
28456;BME280;15682;56.742;38.866;2022-08-24T07:41:38;100940.0;;;28.1;45.8
28456;BME280;15682;56.742;38.866;2022-08-24T07:43:35;100940.0;;;28.1;46.7
28456;BME280;15682;56.742;38.866;2022-08-24T07:45:39;100940.0;;;28.1;41.6
28456;BME280;15682;56.742;38.866;2022-08-24T07:47:37;100940.0;;;28.1;41.6
28456;BME280;15682;56.742;38.866;2022-08-24T07:49:39;100940.0;;;28.3;41.6
28456;BME280;15682;56.742;38.866;2022-08-24T07:51:38;100940.0;;;28.4;41.3
28456;BME280;15682;56.742;38.866;2022-08-24T07:53:39;100940.0;;;28.5;41.6
28456;BME280;15682;56.742;38.866;2022-08-24T07:55:40;100940.0;;;28.6;41.6
28456;BME280;15682;56.742;38.866;2022-08-24T07:57:41;100940.0;;;28.7;40.5
28456;BME280;15682;56.742;38.866;2022-08-24T07:59:41;100940.0;;;28.7;40.5
28456;BME280;15682;56.742;38.866;2022-08-24T08:01:42;100940.0;;;28.8;39.7
28456;BME280;15682;56.742;38.866;2022-08-24T08:03:42;100940.0;;;28.8;40.8
28456;BME280;15682;56.742;38.866;2022-08-24T08:05:43;100940.0;;;29.0;41.5
28456;BME280;15682;56.742;38.866;2022-08-24T08:07:44;100940.0;;;29.2;42.2
28456;BME280;15682;56.742;38.866;2022-08-24T08:09:44;100940.0;;;29.2;41.5
28456;BME280;15682;56.742;38.866;2022-08-24T08:11:45;100940.0;;;29.2;41.5
28456;BME280;15682;56.742;38.866;2022-08-24T08:13:46;100930.0;;;29.2;41.5
28456;BME280;15682;56.742;38.866;2022-08-24T08:15:46;100930.0;;;29.2;41.5
28456;BME280;15682;56.742;38.866;2022-08-24T08:17:47;100930.0;;;29.4;40.7
28456;BME280;15682;56.742;38.866;2022-08-24T08:19:49;100930.0;;;29.6;41.2
28456;BME280;15682;56.742;38.866;2022-08-24T08:21:50;100920.0;;;29.7;41.2
28456;BME280;15682;56.742;38.866;2022-08-24T08:23:49;100920.0;;;29.7;40.7
28456;BME280;15682;56.742;38.866;2022-08-24T08:25:52;100920.0;;;29.7;41.0
28456;BME280;15682;56.742;38.866;2022-08-24T08:27:50;100910.0;;;29.8;39.6
28456;BME280;15682;56.742;38.866;2022-08-24T08:29:51;100910.0;;;29.9;40.8
28456;BME280;15682;56.742;38.866;2022-08-24T08:31:53;100910.0;;;29.9;40.8
28456;BME280;15682;56.742;38.866;2022-08-24T08:33:52;100910.0;;;29.9;40.8
28456;BME280;15682;56.742;38.866;2022-08-24T08:36:02;100910.0;;;30.0;40.0
28456;BME280;15682;56.742;38.866;2022-08-24T08:37:54;100910.0;;;30.1;40.2
28456;BME280;15682;56.742;38.866;2022-08-24T08:39:54;100910.0;;;30.3;39.1
28456;BME280;15682;56.742;38.866;2022-08-24T08:42:06;100910.0;;;30.3;39.1
28456;BME280;15682;56.742;38.866;2022-08-24T08:44:02;100910.0;;;30.1;37.8
28456;BME280;15682;56.742;38.866;2022-08-24T08:46:12;100910.0;;;30.3;38.3
28456;BME280;15682;56.742;38.866;2022-08-24T08:50:08;100910.0;;;30.7;37.2
28456;BME280;15682;56.742;38.866;2022-08-24T08:54:10;100910.0;;;30.9;38.0
28456;BME280;15682;56.742;38.866;2022-08-24T08:56:04;100910.0;;;30.9;39.5
28456;BME280;15682;56.742;38.866;2022-08-24T08:58:09;100910.0;;;31.1;39.5
28456;BME280;15682;56.742;38.866;2022-08-24T09:00:09;100910.0;;;31.1;37.8
28456;BME280;15682;56.742;38.866;2022-08-24T09:02:09;100910.0;;;31.1;39.0
28456;BME280;15682;56.742;38.866;2022-08-24T09:04:13;100910.0;;;30.8;39.0
28456;BME280;15682;56.742;38.866;2022-08-24T09:06:21;100910.0;;;31.0;38.4
28456;BME280;15682;56.742;38.866;2022-08-24T09:08:11;100910.0;;;31.1;39.5
28456;BME280;15682;56.742;38.866;2022-08-24T09:10:19;100910.0;;;31.3;38.3
28456;BME280;15682;56.742;38.866;2022-08-24T09:12:14;100910.0;;;31.3;38.3
28456;BME280;15682;56.742;38.866;2022-08-24T09:14:23;100910.0;;;31.3;38.3
28456;BME280;15682;56.742;38.866;2022-08-24T09:16:21;100910.0;;;31.3;38.3
28456;BME280;15682;56.742;38.866;2022-08-24T09:18:17;100900.0;;;31.3;38.3
28456;BME280;15682;56.742;38.866;2022-08-24T09:20:18;100900.0;;;31.2;38.3
28456;BME280;15682;56.742;38.866;2022-08-24T09:22:13;100900.0;;;31.1;38.3
28456;BME280;15682;56.742;38.866;2022-08-24T09:24:22;100900.0;;;31.1;38.9
28456;BME280;15682;56.742;38.866;2022-08-24T09:26:19;100900.0;;;31.1;38.7
28456;BME280;15682;56.742;38.866;2022-08-24T09:28:29;100900.0;;;31.0;39.0
28456;BME280;15682;56.742;38.866;2022-08-24T09:30:14;100900.0;;;31.0;37.9
28456;BME280;15682;56.742;38.866;2022-08-24T09:32:27;100900.0;;;30.6;37.9
28456;BME280;15682;56.742;38.866;2022-08-24T09:34:22;100890.0;;;30.7;38.5
28456;BME280;15682;56.742;38.866;2022-08-24T09:36:24;100890.0;;;30.7;38.5
28456;BME280;15682;56.742;38.866;2022-08-24T09:38:22;100880.0;;;30.9;37.4
28456;BME280;15682;56.742;38.866;2022-08-24T09:40:30;100880.0;;;30.9;38.2
28456;BME280;15682;56.742;38.866;2022-08-24T09:44:30;100880.0;;;31.0;39.8
28456;BME280;15682;56.742;38.866;2022-08-24T09:46:41;100880.0;;;31.0;39.8
28456;BME280;15682;56.742;38.866;2022-08-24T09:48:37;100880.0;;;31.1;39.1
28456;BME280;15682;56.742;38.866;2022-08-24T09:50:42;100880.0;;;31.1;38.6
28456;BME280;15682;56.742;38.866;2022-08-24T09:52:39;100880.0;;;30.8;37.4
28456;BME280;15682;56.742;38.866;2022-08-24T09:54:36;100880.0;;;30.8;37.4
28456;BME280;15682;56.742;38.866;2022-08-24T09:56:33;100880.0;;;30.8;38.2
28456;BME280;15682;56.742;38.866;2022-08-24T09:58:31;100880.0;;;30.8;37.7
28456;BME280;15682;56.742;38.866;2022-08-24T10:00:24;100880.0;;;30.5;38.3
28456;BME280;15682;56.742;38.866;2022-08-24T10:02:35;100880.0;;;30.5;38.3
28456;BME280;15682;56.742;38.866;2022-08-24T10:04:28;100880.0;;;30.5;39.2
28456;BME280;15682;56.742;38.866;2022-08-24T10:06:31;100880.0;;;30.7;38.5
28456;BME280;15682;56.742;38.866;2022-08-24T10:08:34;100870.0;;;30.7;38.0
28456;BME280;15682;56.742;38.866;2022-08-24T10:10:31;100870.0;;;30.7;38.0
28456;BME280;15682;56.742;38.866;2022-08-24T10:12:36;100870.0;;;30.7;38.5
28456;BME280;15682;56.742;38.866;2022-08-24T10:14:42;100870.0;;;30.4;39.3
28456;BME280;15682;56.742;38.866;2022-08-24T10:16:40;100870.0;;;30.0;39.2
28456;BME280;15682;56.742;38.866;2022-08-24T10:18:39;100870.0;;;29.7;39.2
28456;BME280;15682;56.742;38.866;2022-08-24T10:20:46;100870.0;;;30.1;39.2
28456;BME280;15682;56.742;38.866;2022-08-24T10:22:48;100870.0;;;30.4;39.2
28456;BME280;15682;56.742;38.866;2022-08-24T10:24:49;100870.0;;;30.6;38.5
28456;BME280;15682;56.742;38.866;2022-08-24T10:26:35;100860.0;;;30.6;38.3
28456;BME280;15682;56.742;38.866;2022-08-24T10:28:42;100860.0;;;30.7;37.4
28456;BME280;15682;56.742;38.866;2022-08-24T10:30:51;100860.0;;;30.7;37.4
28456;BME280;15682;56.742;38.866;2022-08-24T10:32:44;100860.0;;;30.8;37.4
28456;BME280;15682;56.742;38.866;2022-08-24T10:34:44;100860.0;;;30.8;37.4
28456;BME280;15682;56.742;38.866;2022-08-24T10:36:46;100860.0;;;30.8;37.4
28456;BME280;15682;56.742;38.866;2022-08-24T10:38:42;100860.0;;;31.0;37.9
28456;BME280;15682;56.742;38.866;2022-08-24T10:40:39;100850.0;;;31.0;37.9
28456;BME280;15682;56.742;38.866;2022-08-24T10:42:50;100850.0;;;31.0;37.9
28456;BME280;15682;56.742;38.866;2022-08-24T10:44:46;100850.0;;;31.1;38.5
28456;BME280;15682;56.742;38.866;2022-08-24T10:46:47;100840.0;;;31.0;36.6
28456;BME280;15682;56.742;38.866;2022-08-24T10:48:54;100840.0;;;31.0;36.6
28456;BME280;15682;56.742;38.866;2022-08-24T10:50:45;100840.0;;;30.9;36.6
28456;BME280;15682;56.742;38.866;2022-08-24T10:52:51;100840.0;;;30.9;36.1